WXM80 ListenWXM80 Stop

You find our weather info also at:

UK Metoffice

WeatherCloud

Weather Underground

Northeastern Weather Network

AWEKAS

Citizen Weather Observer Program (CWOP)

HAMweather, WeatherForYou, PWS Weather


Weather Underground History page Text

Daily Summary for September 6, 2017 Units:  English    Metric   Both
« Previous Day
Next Day »
Daily Weekly Monthly Yearly Custom
  High: Low: Average:
Temperature: 73.4 °F 62.1 °F 67.8 °F
Dew Point: 71.1 °F 60.9 °F 65.1 °F
Humidity: 96 % 81 % 91 %
Wind Speed: 7.2 mph 0.0 mph 1.4 mph
Wind Gust: 12.7 mph - -
Wind:- - SE
Pressure: 29.85 in 29.76 in -
Precipitation: 0.80 in    
Historical Graphs
 
 
Tabular Data for September 6, 2017
Time Temperature Dew Point Pressure Wind Wind Speed Wind Gust Humidity Rainfall Rate (Hourly)
00:02 70.0 °F 67.6 °F 29.77 in Calm     92 % 0.00 in
00:07 70.0 °F 67.6 °F 29.77 in Calm     92 % 0.00 in
00:12 69.9 °F 67.2 °F 29.77 in Calm     91 % 0.00 in
00:17 69.8 °F 67.1 °F 29.77 in Calm     91 % 0.00 in
00:27 69.7 °F 67.0 °F 29.77 in Calm     91 % 0.00 in
00:32 69.5 °F 66.8 °F 29.78 in Calm     91 % 0.00 in
00:37 69.5 °F 66.8 °F 29.77 in Calm     91 % 0.00 in
00:42 69.4 °F 67.0 °F 29.78 in Calm     92 % 0.00 in
00:47 69.3 °F 66.9 °F 29.78 in Calm     92 % 0.00 in
00:52 69.2 °F 66.8 °F 29.78 in Calm     92 % 0.00 in
00:57 69.2 °F 66.8 °F 29.79 in Calm     92 % 0.00 in
01:02 69.0 °F 66.3 °F 29.79 in Calm     91 % 0.00 in
01:07 69.0 °F 66.3 °F 29.79 in Calm     91 % 0.00 in
01:13 68.8 °F 66.1 °F 29.79 in Calm     91 % 0.00 in
01:18 68.8 °F 66.4 °F 29.78 in Calm     92 % 0.00 in
01:23 68.6 °F 66.2 °F 29.78 in Calm     92 % 0.00 in
01:28 68.6 °F 66.2 °F 29.78 in Calm     92 % 0.00 in
01:33 68.5 °F 66.4 °F 29.78 in Calm     93 % 0.00 in
01:38 68.4 °F 66.3 °F 29.78 in Calm     93 % 0.00 in
01:43 68.3 °F 66.2 °F 29.78 in Calm     93 % 0.00 in
01:48 68.2 °F 66.1 °F 29.78 in Calm     93 % 0.00 in
01:53 68.1 °F 66.0 °F 29.79 in Calm     93 % 0.00 in
01:58 68.1 °F 66.0 °F 29.78 in Calm     93 % 0.00 in
02:03 68.1 °F 66.3 °F 29.78 in Calm     94 % 0.00 in
02:13 68.1 °F 66.3 °F 29.79 in Calm     94 % 0.00 in
02:18 68.0 °F 66.2 °F 29.79 in Calm     94 % 0.00 in
02:20 68.0 °F 66.2 °F 29.79 in Calm     94 % 0.00 in
02:30 68.0 °F 66.2 °F 29.79 in Calm     94 % 0.00 in
02:35 68.0 °F 66.2 °F 29.78 in Calm     94 % 0.00 in
02:40 68.1 °F 66.3 °F 29.78 in Calm     94 % 0.00 in
02:45 68.0 °F 66.2 °F 29.78 in Calm     94 % 0.00 in
02:50 68.0 °F 66.2 °F 29.78 in Calm     94 % 0.00 in
02:55 68.0 °F 66.2 °F 29.78 in Calm     94 % 0.00 in
03:00 68.0 °F 66.2 °F 29.77 in Calm     94 % 0.00 in
03:05 68.0 °F 66.2 °F 29.77 in Calm     94 % 0.00 in
03:10 68.0 °F 66.2 °F 29.77 in Calm     94 % 0.00 in
03:15 67.9 °F 66.1 °F 29.77 in Calm     94 % 0.00 in
03:20 67.9 °F 66.1 °F 29.77 in Calm     94 % 0.00 in
03:25 67.9 °F 66.1 °F 29.77 in Calm     94 % 0.00 in
03:30 67.9 °F 66.1 °F 29.77 in Calm     94 % 0.00 in
03:35 67.9 °F 66.1 °F 29.77 in Calm     94 % 0.00 in
03:40 67.9 °F 66.1 °F 29.77 in Calm     94 % 0.00 in
03:50 67.9 °F 65.8 °F 29.77 in WNW 0.1 mph   93 % 0.00 in
03:55 67.9 °F 65.8 °F 29.77 in Calm     93 % 0.00 in
04:01 67.9 °F 65.8 °F 29.77 in Calm     93 % 0.00 in
04:06 67.9 °F 65.8 °F 29.76 in Calm   2.0 mph 93 % 0.00 in
04:11 67.9 °F 65.8 °F 29.76 in Calm   1.0 mph 93 % 0.00 in
04:16 68.0 °F 65.9 °F 29.77 in Calm     93 % 0.00 in
04:20 68.0 °F 65.9 °F 29.77 in Calm     93 % 0.00 in
04:26 68.0 °F 65.6 °F 29.77 in Calm   1.0 mph 92 % 0.00 in
04:31 68.0 °F 65.6 °F 29.77 in Calm   1.0 mph 92 % 0.00 in
04:36 68.0 °F 65.6 °F 29.77 in Calm   1.0 mph 92 % 0.00 in
04:41 68.0 °F 65.6 °F 29.77 in Calm   1.0 mph 92 % 0.00 in
04:46 68.0 °F 65.6 °F 29.77 in Calm   1.0 mph 92 % 0.00 in
04:51 68.0 °F 65.6 °F 29.77 in Calm     92 % 0.00 in
04:56 68.0 °F 65.6 °F 29.77 in Calm     92 % 0.00 in
05:01 68.0 °F 65.6 °F 29.77 in Calm     92 % 0.00 in
05:06 68.0 °F 65.6 °F 29.77 in Calm     92 % 0.00 in
05:11 68.0 °F 65.6 °F 29.77 in Calm     92 % 0.00 in
05:16 68.0 °F 65.6 °F 29.77 in Calm     92 % 0.00 in
05:21 68.0 °F 65.6 °F 29.77 in Calm     92 % 0.00 in
05:26 68.0 °F 65.6 °F 29.77 in Calm     92 % 0.00 in
05:31 68.1 °F 65.7 °F 29.77 in Calm     92 % 0.00 in
05:36 68.1 °F 65.7 °F 29.77 in Calm     92 % 0.00 in
05:41 68.1 °F 65.7 °F 29.77 in Calm     92 % 0.00 in
05:51 68.2 °F 65.8 °F 29.77 in SSE 0.9 mph 3.5 mph 92 % 0.00 in
05:56 68.2 °F 65.5 °F 29.77 in SSE 1.9 mph 3.5 mph 91 % 0.00 in
06:02 68.4 °F 65.7 °F 29.77 in SSE 1.2 mph 3.0 mph 91 % 0.00 in
06:07 68.6 °F 65.5 °F 29.76 in Calm   2.3 mph 90 % 0.00 in
06:12 68.8 °F 65.7 °F 29.76 in Calm     90 % 0.00 in
06:17 68.9 °F 65.8 °F 29.76 in Calm   1.2 mph 90 % 0.00 in
06:22 69.0 °F 65.9 °F 29.76 in Calm   1.2 mph 90 % 0.00 in
06:32 69.2 °F 66.1 °F 29.77 in Calm     90 % 0.00 in
06:42 69.4 °F 66.7 °F 29.76 in SE 0.1 mph 1.2 mph 91 % 0.00 in
06:47 69.4 °F 66.7 °F 29.76 in Calm     91 % 0.00 in
06:52 69.5 °F 66.8 °F 29.76 in Calm     91 % 0.00 in
06:57 69.7 °F 67.3 °F 29.76 in SSE 0.2 mph 2.3 mph 92 % 0.00 in
06:59 69.8 °F 67.4 °F 29.77 in West 0.1 mph 3.5 mph 92 % 0.00 in
07:04 69.9 °F 67.8 °F 29.77 in WSW 0.4 mph 3.5 mph 93 % 0.00 in
07:09 70.1 °F 68.0 °F 29.77 in Calm   2.0 mph 93 % 0.00 in
07:14 70.3 °F 68.5 °F 29.77 in WSW 0.1 mph 1.0 mph 94 % 0.00 in
07:19 70.5 °F 68.7 °F 29.77 in WSW 0.4 mph 1.2 mph 94 % 0.00 in
07:24 70.8 °F 69.0 °F 29.77 in Calm     94 % 0.00 in
07:29 71.0 °F 69.5 °F 29.77 in Calm   2.3 mph 95 % 0.00 in
07:35 71.2 °F 69.7 °F 29.78 in West 2.5 mph 4.6 mph 95 % 0.00 in
07:40 71.3 °F 69.8 °F 29.78 in Calm   2.3 mph 95 % 0.00 in
07:45 71.4 °F 69.9 °F 29.78 in WSW 0.4 mph 2.3 mph 95 % 0.00 in
07:55 71.6 °F 70.1 °F 29.78 in WSW 0.1 mph 1.2 mph 95 % 0.00 in
08:00 71.8 °F 70.3 °F 29.78 in WSW 0.1 mph 1.2 mph 95 % 0.00 in
08:05 71.8 °F 70.3 °F 29.78 in West 1.1 mph 2.3 mph 95 % 0.00 in
08:10 71.9 °F 70.4 °F 29.78 in NW 1.7 mph 4.0 mph 95 % 0.00 in
08:15 71.9 °F 70.1 °F 29.78 in WNW 1.5 mph 3.5 mph 94 % 0.00 in
08:20 71.9 °F 70.1 °F 29.79 in WNW 0.1 mph 1.0 mph 94 % 0.00 in
08:25 71.8 °F 70.0 °F 29.78 in Calm   2.0 mph 94 % 0.00 in
08:30 71.7 °F 69.6 °F 29.78 in Calm   4.0 mph 93 % 0.00 in
08:35 71.6 °F 69.5 °F 29.79 in WNW 0.4 mph 2.0 mph 93 % 0.00 in
08:40 71.5 °F 69.1 °F 29.79 in Calm     92 % 0.01 in
08:45 71.3 °F 68.9 °F 29.78 in Calm     92 % 0.01 in
08:50 71.2 °F 68.8 °F 29.78 in Calm     92 % 0.00 in
08:55 71.1 °F 68.7 °F 29.78 in Calm     92 % 0.00 in
09:01 71.0 °F 68.6 °F 29.78 in Calm     92 % 0.01 in
09:06 70.9 °F 68.5 °F 29.79 in Calm     92 % 0.01 in
09:11 70.8 °F 68.4 °F 29.79 in Calm     92 % 0.01 in
09:16 70.8 °F 68.4 °F 29.79 in Calm     92 % 0.01 in
09:21 70.7 °F 68.3 °F 29.79 in Calm     92 % 0.01 in
09:26 70.6 °F 68.2 °F 29.80 in Calm     92 % 0.01 in
09:31 70.6 °F 68.5 °F 29.80 in Calm     93 % 0.01 in
09:36 70.7 °F 68.6 °F 29.80 in Calm     93 % 0.01 in
09:37 70.7 °F 68.6 °F 29.80 in Calm     93 % 0.01 in
09:42 70.9 °F 69.1 °F 29.80 in WNW 1.1 mph 3.5 mph 94 % 0.00 in
09:47 71.1 °F 69.3 °F 29.80 in North 0.7 mph 2.3 mph 94 % 0.00 in
09:52 71.3 °F 69.5 °F 29.80 in North 0.1 mph 2.0 mph 94 % 0.00 in
09:57 71.4 °F 69.6 °F 29.81 in WNW 2.0 mph 3.5 mph 94 % 0.00 in
10:02 71.6 °F 69.8 °F 29.81 in WNW 0.2 mph 1.2 mph 94 % 0.00 in
10:07 71.8 °F 70.0 °F 29.82 in WNW 0.4 mph 3.5 mph 94 % 0.00 in
10:12 71.9 °F 70.1 °F 29.82 in WNW 1.0 mph 3.5 mph 94 % 0.00 in
10:17 72.0 °F 69.9 °F 29.82 in WNW 1.0 mph 2.3 mph 93 % 0.00 in
10:22 72.0 °F 69.9 °F 29.83 in Calm     93 % 0.00 in
10:27 72.1 °F 70.0 °F 29.83 in WSW 0.2 mph 3.5 mph 93 % 0.00 in
10:30 72.1 °F 69.6 °F 29.84 in Calm   1.2 mph 92 % 0.00 in
10:35 72.0 °F 69.2 °F 29.82 in Calm   1.0 mph 91 % 0.00 in
10:40 72.0 °F 69.2 °F 29.82 in Calm     91 % 0.00 in
10:45 72.0 °F 69.2 °F 29.81 in Calm   3.5 mph 91 % 0.01 in
10:50 72.2 °F 70.1 °F 29.81 in NNW 0.6 mph 3.5 mph 93 % 0.01 in
10:55 72.5 °F 70.7 °F 29.81 in North 1.2 mph 3.5 mph 94 % 0.01 in
11:00 72.7 °F 70.6 °F 29.81 in WNW 1.1 mph 2.0 mph 93 % 0.01 in
11:05 72.9 °F 71.1 °F 29.81 in North 0.9 mph 3.0 mph 94 % 0.01 in
11:10 73.0 °F 70.9 °F 29.81 in North 1.5 mph 3.5 mph 93 % 0.01 in
11:15 73.2 °F 71.1 °F 29.81 in NW 0.5 mph 3.0 mph 93 % 0.01 in
11:20 73.3 °F 70.8 °F 29.81 in WNW 2.2 mph 3.5 mph 92 % 0.01 in
11:25 73.4 °F 70.9 °F 29.81 in Calm     92 % 0.01 in
11:30 73.4 °F 70.9 °F 29.82 in West 0.3 mph 4.6 mph 92 % 0.01 in
11:35 73.4 °F 70.6 °F 29.82 in North 0.4 mph   91 % 0.01 in
11:40 73.4 °F 70.6 °F 29.82 in Calm   1.2 mph 91 % 0.01 in
11:45 73.3 °F 70.5 °F 29.82 in WNW 0.6 mph 4.6 mph 91 % 0.00 in
11:50 73.3 °F 70.2 °F 29.82 in NW 0.5 mph 3.5 mph 90 % 0.00 in
11:55 73.2 °F 70.1 °F 29.82 in WNW 0.1 mph 5.0 mph 90 % 0.00 in
12:00 72.8 °F 68.7 °F 29.82 in NNW 5.1 mph 10.4 mph 87 % 0.00 in
12:05 72.1 °F 67.0 °F 29.81 in NNE 6.0 mph 10.4 mph 84 % 0.00 in
12:06 72.1 °F 67.0 °F 29.81 in NNE 6.4 mph 10.4 mph 84 % 0.00 in
12:11 71.2 °F 66.1 °F 29.82 in North 5.4 mph 11.5 mph 84 % 0.00 in
12:16 70.7 °F 65.6 °F 29.82 in North 7.1 mph 10.4 mph 84 % 0.00 in
12:21 70.2 °F 65.1 °F 29.82 in North 6.0 mph 10.4 mph 84 % 0.00 in
12:26 69.8 °F 64.7 °F 29.82 in North 6.3 mph 10.4 mph 84 % 0.00 in
12:31 69.5 °F 64.5 °F 29.81 in North 5.3 mph 11.5 mph 84 % 0.00 in
12:36 69.4 °F 64.7 °F 29.82 in NNE 3.6 mph 6.9 mph 85 % 0.00 in
12:41 69.2 °F 64.5 °F 29.82 in North 4.4 mph 9.2 mph 85 % 0.00 in
12:46 69.0 °F 64.3 °F 29.82 in NNW 2.2 mph 5.0 mph 85 % 0.00 in
12:51 68.8 °F 64.4 °F 29.83 in NNE 4.4 mph 4.6 mph 86 % 0.00 in
12:56 68.7 °F 64.3 °F 29.83 in NNE 1.5 mph 2.0 mph 86 % 0.00 in
13:01 68.6 °F 64.6 °F 29.83 in NNE 0.1 mph 1.2 mph 87 % 0.00 in
13:06 68.5 °F 64.5 °F 29.82 in North 2.5 mph 5.8 mph 87 % 0.00 in
13:12 68.5 °F 64.5 °F 29.82 in North 1.8 mph 3.5 mph 87 % 0.00 in
13:17 68.5 °F 64.5 °F 29.82 in NNE 2.5 mph 3.5 mph 87 % 0.00 in
13:22 68.6 °F 64.6 °F 29.82 in ENE 2.0 mph 5.8 mph 87 % 0.00 in
13:27 68.8 °F 65.1 °F 29.82 in NNW 2.9 mph 4.6 mph 88 % 0.00 in
13:32 69.1 °F 65.4 °F 29.82 in NNE 1.1 mph 4.6 mph 88 % 0.00 in
13:37 69.4 °F 65.4 °F 29.82 in NE 1.8 mph 3.5 mph 87 % 0.00 in
13:42 69.7 °F 65.3 °F 29.82 in ENE 1.3 mph 4.0 mph 86 % 0.00 in
13:47 70.1 °F 65.4 °F 29.82 in NNE 3.3 mph 6.9 mph 85 % 0.00 in
13:52 70.3 °F 65.2 °F 29.82 in North 1.5 mph 3.5 mph 84 % 0.00 in
13:57 70.5 °F 65.1 °F 29.82 in NE 1.7 mph 3.5 mph 83 % 0.00 in
14:02 70.6 °F 65.5 °F 29.82 in North 0.9 mph 3.5 mph 84 % 0.00 in
14:07 70.7 °F 65.3 °F 29.82 in NNE 3.6 mph 6.0 mph 83 % 0.00 in
14:12 70.7 °F 64.9 °F 29.82 in North 1.1 mph 4.0 mph 82 % 0.00 in
14:17 70.7 °F 64.9 °F 29.82 in North 1.2 mph 3.5 mph 82 % 0.00 in
14:23 70.6 °F 64.8 °F 29.83 in North 2.3 mph 4.6 mph 82 % 0.00 in
14:28 70.6 °F 64.8 °F 29.83 in NNE 2.4 mph 3.0 mph 82 % 0.00 in
14:33 70.4 °F 64.6 °F 29.83 in NNE 2.6 mph 4.6 mph 82 % 0.00 in
14:38 70.1 °F 64.3 °F 29.83 in North 1.6 mph 3.5 mph 82 % 0.00 in
14:43 70.0 °F 63.9 °F 29.83 in North 4.1 mph 4.6 mph 81 % 0.00 in
14:48 69.9 °F 63.8 °F 29.82 in NNE 2.6 mph 6.9 mph 81 % 0.00 in
14:53 69.8 °F 64.1 °F 29.83 in NNW 0.3 mph 2.3 mph 82 % 0.00 in
14:58 69.7 °F 64.0 °F 29.82 in North 2.8 mph 5.8 mph 82 % 0.00 in
15:03 69.6 °F 63.9 °F 29.82 in NNW 3.3 mph 4.0 mph 82 % 0.00 in
15:08 69.5 °F 64.1 °F 29.81 in NE 2.0 mph 4.0 mph 83 % 0.00 in
15:14 69.5 °F 64.5 °F 29.81 in NE 0.6 mph 3.5 mph 84 % 0.00 in
15:19 69.6 °F 64.9 °F 29.81 in NNE 2.1 mph 4.6 mph 85 % 0.00 in
15:24 69.7 °F 65.0 °F 29.81 in NE 0.8 mph 2.0 mph 85 % 0.00 in
15:29 69.7 °F 65.0 °F 29.81 in NE 0.5 mph 1.2 mph 85 % 0.00 in
15:34 69.7 °F 64.6 °F 29.81 in NE 0.1 mph 1.2 mph 84 % 0.00 in
15:39 69.7 °F 64.6 °F 29.81 in NE 0.9 mph 3.5 mph 84 % 0.00 in
15:44 69.6 °F 64.5 °F 29.81 in NE 0.2 mph 1.2 mph 84 % 0.00 in
15:49 69.5 °F 64.5 °F 29.81 in ENE 0.2 mph 1.2 mph 84 % 0.00 in
15:54 69.4 °F 64.4 °F 29.81 in ENE 0.8 mph 2.3 mph 84 % 0.00 in
15:59 69.3 °F 64.6 °F 29.81 in NNE 2.7 mph 5.0 mph 85 % 0.00 in
16:04 69.2 °F 64.5 °F 29.82 in North 2.4 mph 4.6 mph 85 % 0.00 in
16:10 69.2 °F 64.5 °F 29.82 in NNE 3.5 mph 5.8 mph 85 % 0.00 in
16:15 69.0 °F 64.3 °F 29.82 in North 1.8 mph 5.0 mph 85 % 0.00 in
16:20 68.9 °F 64.2 °F 29.82 in North 2.5 mph 6.0 mph 85 % 0.00 in
16:25 68.8 °F 64.4 °F 29.82 in ENE 1.7 mph 3.5 mph 86 % 0.01 in
16:30 68.5 °F 64.1 °F 29.82 in NE 1.9 mph 4.0 mph 86 % 0.05 in
16:35 68.4 °F 64.0 °F 29.82 in NE 0.5 mph 2.3 mph 86 % 0.08 in
16:40 68.1 °F 64.1 °F 29.81 in NE 0.8 mph 2.3 mph 87 % 0.09 in
16:45 67.9 °F 64.2 °F 29.81 in North 0.2 mph 2.0 mph 88 % 0.11 in
16:50 67.7 °F 64.3 °F 29.81 in North 4.8 mph 6.9 mph 89 % 0.11 in
16:55 67.5 °F 64.1 °F 29.82 in NNE 2.1 mph 4.6 mph 89 % 0.11 in
17:00 67.3 °F 63.9 °F 29.83 in North 1.8 mph 4.6 mph 89 % 0.11 in
17:05 67.0 °F 63.6 °F 29.83 in North 3.4 mph 5.8 mph 89 % 0.11 in
17:10 66.7 °F 63.4 °F 29.83 in NNE 3.3 mph 6.9 mph 89 % 0.11 in
17:15 66.5 °F 63.5 °F 29.83 in NNE 6.0 mph 10.4 mph 90 % 0.11 in
17:20 66.1 °F 63.1 °F 29.84 in North 3.7 mph 7.0 mph 90 % 0.11 in
17:25 65.7 °F 62.7 °F 29.83 in West 3.5 mph 6.9 mph 90 % 0.10 in
17:30 65.5 °F 62.5 °F 29.83 in NE 5.8 mph 9.2 mph 90 % 0.06 in
17:35 65.2 °F 62.5 °F 29.83 in North 6.2 mph 12.7 mph 91 % 0.03 in
17:40 65.0 °F 62.6 °F 29.83 in North 7.2 mph 10.4 mph 92 % 0.03 in
17:45 64.8 °F 62.4 °F 29.83 in North 4.6 mph 7.0 mph 92 % 0.01 in
17:50 64.6 °F 62.2 °F 29.84 in NNE 4.1 mph 7.0 mph 92 % 0.01 in
17:55 64.4 °F 62.0 °F 29.84 in NNE 5.7 mph 9.2 mph 92 % 0.01 in
18:00 64.3 °F 61.9 °F 29.84 in NNE 7.1 mph 9.2 mph 92 % 0.01 in
18:05 64.1 °F 61.7 °F 29.84 in NNE 6.1 mph 10.4 mph 92 % 0.01 in
18:10 64.0 °F 61.9 °F 29.84 in NNW 6.7 mph 8.1 mph 93 % 0.01 in
18:15 63.9 °F 61.8 °F 29.84 in North 4.7 mph 6.0 mph 93 % 0.02 in
18:20 63.8 °F 61.7 °F 29.84 in NNE 3.9 mph 9.2 mph 93 % 0.02 in
18:25 63.7 °F 61.6 °F 29.84 in North 5.8 mph 6.9 mph 93 % 0.02 in
18:30 63.5 °F 61.4 °F 29.85 in North 6.0 mph 10.4 mph 93 % 0.02 in
18:35 63.4 °F 61.3 °F 29.84 in North 6.5 mph 11.5 mph 93 % 0.02 in
18:41 63.4 °F 61.3 °F 29.85 in North 3.0 mph 5.8 mph 93 % 0.01 in
18:45 63.4 °F 61.3 °F 29.84 in NNE 5.9 mph 8.1 mph 93 % 0.01 in
18:51 63.4 °F 61.6 °F 29.84 in NNE 3.8 mph 6.0 mph 94 % 0.01 in
18:56 63.4 °F 61.6 °F 29.84 in North 4.5 mph 6.9 mph 94 % 0.01 in
19:01 63.3 °F 61.5 °F 29.84 in NNE 6.2 mph 10.0 mph 94 % 0.01 in
19:06 63.3 °F 61.5 °F 29.83 in North 5.1 mph 10.4 mph 94 % 0.01 in
19:11 63.3 °F 61.5 °F 29.84 in NNE 4.0 mph 5.8 mph 94 % 0.01 in
19:16 63.3 °F 61.5 °F 29.83 in NE 1.1 mph 3.5 mph 94 % 0.00 in
19:21 63.3 °F 61.5 °F 29.83 in NE 0.9 mph 4.6 mph 94 % 0.00 in
19:26 63.3 °F 61.5 °F 29.83 in NE 2.1 mph 4.6 mph 94 % 0.00 in
19:31 63.3 °F 61.5 °F 29.83 in NNE 0.6 mph 1.2 mph 94 % 0.00 in
19:36 63.3 °F 61.5 °F 29.83 in NE 2.1 mph 3.5 mph 94 % 0.00 in
19:41 63.3 °F 61.5 °F 29.83 in NE 0.7 mph 4.0 mph 94 % 0.00 in
19:46 63.3 °F 61.5 °F 29.84 in ENE 1.8 mph 3.5 mph 94 % 0.00 in
19:51 63.3 °F 61.5 °F 29.84 in NNW 1.5 mph 5.0 mph 94 % 0.00 in
19:56 63.3 °F 61.5 °F 29.83 in NNE 2.6 mph 4.6 mph 94 % 0.00 in
20:01 63.4 °F 61.6 °F 29.83 in NNE 1.5 mph 3.5 mph 94 % 0.00 in
20:06 63.4 °F 61.6 °F 29.83 in NNE 2.8 mph 5.8 mph 94 % 0.00 in
20:11 63.4 °F 61.6 °F 29.83 in North 1.5 mph 3.0 mph 94 % 0.00 in
20:16 63.4 °F 61.6 °F 29.84 in North 1.1 mph 3.5 mph 94 % 0.00 in
20:21 63.4 °F 61.6 °F 29.84 in North 2.0 mph 5.8 mph 94 % 0.00 in
20:26 63.4 °F 61.3 °F 29.84 in NNE 3.0 mph 3.5 mph 93 % 0.00 in
20:31 63.5 °F 61.4 °F 29.84 in NNE 3.1 mph 4.6 mph 93 % 0.00 in
20:33 63.5 °F 61.4 °F 29.84 in Calm   3.5 mph 93 % 0.00 in
20:38 63.5 °F 61.4 °F 29.84 in Calm     93 % 0.00 in
20:43 63.6 °F 61.5 °F 29.84 in North 0.2 mph 1.2 mph 93 % 0.02 in
20:48 63.6 °F 61.5 °F 29.84 in North 0.9 mph 2.3 mph 93 % 0.05 in
20:53 63.7 °F 61.6 °F 29.84 in NNW 0.5 mph 2.3 mph 93 % 0.10 in
20:58 63.7 °F 61.6 °F 29.84 in North 0.7 mph 2.3 mph 93 % 0.13 in
21:03 63.7 °F 61.6 °F 29.83 in North 0.2 mph 1.2 mph 93 % 0.14 in
21:08 63.6 °F 61.5 °F 29.83 in North 3.0 mph 4.6 mph 93 % 0.18 in
21:13 63.6 °F 61.8 °F 29.84 in North 2.1 mph 4.6 mph 94 % 0.18 in
21:18 63.5 °F 61.7 °F 29.83 in NNE 2.0 mph 4.6 mph 94 % 0.18 in
21:23 63.4 °F 61.6 °F 29.83 in North 3.1 mph 5.8 mph 94 % 0.19 in
21:28 63.3 °F 61.5 °F 29.84 in NNE 0.1 mph 1.2 mph 94 % 0.20 in
21:30 63.2 °F 61.4 °F 29.84 in NNE 0.6 mph   94 % 0.20 in
21:36 63.2 °F 61.4 °F 29.84 in NNE 1.0 mph 5.0 mph 94 % 0.00 in
21:41 63.1 °F 61.3 °F 29.83 in NNE 1.0 mph 3.0 mph 94 % 0.00 in
21:46 63.0 °F 61.2 °F 29.83 in NNE 1.0 mph 4.0 mph 94 % 0.01 in
21:51 62.9 °F 61.2 °F 29.83 in NNE 1.0 mph 5.0 mph 94 % 0.00 in
21:56 62.9 °F 61.1 °F 29.83 in NNE 1.7 mph 3.5 mph 94 % 0.13 in
22:01 62.8 °F 61.0 °F 29.83 in NE 0.2 mph 3.5 mph 94 % 0.12 in
22:06 62.7 °F 60.9 °F 29.82 in North 0.5 mph 3.5 mph 94 % 0.11 in
22:11 62.7 °F 60.9 °F 29.83 in NE 1.0 mph 3.5 mph 94 % 0.11 in
22:12 62.7 °F 60.9 °F 29.84 in Calm     94 % 0.11 in
22:17 62.7 °F 60.9 °F 29.84 in NE 0.2 mph 2.3 mph 94 % 0.13 in
22:22 62.7 °F 60.9 °F 29.83 in Calm   1.2 mph 94 % 0.15 in
22:27 62.6 °F 61.1 °F 29.82 in ENE 3.0 mph 5.8 mph 95 % 0.20 in
22:29 62.6 °F 61.1 °F 29.81 in ENE 1.9 mph 4.6 mph 95 % 0.20 in
22:34 62.6 °F 61.1 °F 29.82 in ENE 1.6 mph 3.5 mph 95 % 0.22 in
22:39 62.5 °F 61.0 °F 29.82 in North 1.0 mph 2.3 mph 95 % 0.23 in
22:44 62.6 °F 61.1 °F 29.82 in NNE 2.0 mph 3.5 mph 95 % 0.26 in
22:49 62.6 °F 61.1 °F 29.83 in ESE 2.2 mph 4.6 mph 95 % 0.27 in
22:54 62.5 °F 61.0 °F 29.82 in North 2.2 mph 5.0 mph 95 % 0.29 in
22:59 62.5 °F 61.0 °F 29.82 in ENE 0.8 mph 2.3 mph 95 % 0.31 in
23:04 62.4 °F 60.9 °F 29.82 in NNE 0.6 mph 3.0 mph 95 % 0.31 in
23:09 62.4 °F 60.9 °F 29.81 in North 4.0 mph 6.0 mph 95 % 0.31 in
23:15 62.4 °F 61.2 °F 29.82 in North 2.0 mph 4.0 mph 96 % 0.29 in
23:21 62.3 °F 61.2 °F 29.82 in North 2.0 mph 5.0 mph 96 % 0.00 in
23:23 62.3 °F 61.1 °F 29.82 in North 2.6 mph 5.8 mph 96 % 0.25 in
23:26 62.4 °F 61.2 °F 29.82 in North 3.2 mph 8.1 mph 96 % 0.23 in
23:27 62.4 °F 61.2 °F 29.82 in NNW 2.3 mph 8.1 mph 96 % 0.22 in
23:28 62.3 °F 61.1 °F 29.81 in North 2.9 mph 8.1 mph 96 % 0.22 in
23:33 62.3 °F 61.1 °F 29.81 in North 4.2 mph 6.9 mph 96 % 0.18 in
23:36 62.3 °F 61.1 °F 29.80 in NE 5.6 mph 9.0 mph 96 % 0.19 in
23:42 62.2 °F 61.0 °F 29.81 in ENE 2.1 mph 8.1 mph 96 % 0.17 in
23:47 62.1 °F 60.9 °F 29.81 in North 1.3 mph 5.8 mph 96 % 0.14 in
23:52 62.1 °F 60.9 °F 29.80 in ENE 1.8 mph 3.5 mph 96 % 0.13 in
23:57 62.1 °F 60.9 °F 29.81 in North 2.8 mph 5.8 mph 96 % 0.09 in
Crab Meadow Weather
Compliments of Weather Underground - 3 mb

Script developed by  Jim McMurry - jmcmurry@mwt.net Adapted for the template by  Wim van der Kuil - Leuven-Template.eu

Weather Terms: Flood Watch - Conditions are favorable for flash flooding in and close to the watch area. These watches are issued by the Weather Forecast Office in Upton and are usually for the first 12 to 24 hours of a forecast.